Time;durP1;ratioP1;P1;durP2;ratioP2;P2;SDS_P1;SDS_P2;PMS_P1;PMS_P2;Temp;Humidity;BMP_temperature;BMP_pressure;BME280_temperature;BME280_humidity;BME280_pressure;Samples;Min_cycle;Max_cycle;Signal;HPM_P1;HPM_P2
2021/12/13 00:02:02;;;;;;;12.52;8.55;;;7.30;70.30;;;;;;5012021;28;20088;-71
2021/12/13 00:04:42;;;;;;;11.98;8.48;;;7.30;70.30;;;;;;5010499;28;20033;-71
2021/12/13 00:07:21;;;;;;;11.60;8.23;;;7.30;70.40;;;;;;5011815;28;20029;-68
2021/12/13 00:09:52;;;;;;;9.60;7.93;;;7.20;70.50;;;;;;5011324;28;20037;-69
2021/12/13 00:12:25;;;;;;;11.80;8.55;;;7.20;70.80;;;;;;5012836;28;20042;-68
2021/12/13 00:14:53;;;;;;;9.73;7.72;;;7.30;70.70;;;;;;5031963;28;20484;-70
2021/12/13 00:17:26;;;;;;;10.02;7.95;;;7.30;70.40;;;;;;5030966;28;20034;-67
2021/12/13 00:20:04;;;;;;;9.32;7.45;;;7.30;70.40;;;;;;5031552;28;20028;-69
2021/12/13 00:22:37;;;;;;;9.98;7.65;;;7.30;70.20;;;;;;5012713;28;20091;-67
2021/12/13 00:25:07;;;;;;;11.18;8.25;;;7.30;70.30;;;;;;5031520;28;20123;-66
2021/12/13 00:27:43;;;;;;;9.82;7.53;;;7.30;70.30;;;;;;4996749;28;20442;-70
2021/12/13 00:30:22;;;;;;;10.15;7.38;;;7.30;70.20;;;;;;5026384;28;20466;-65
2021/12/13 00:33:06;;;;;;;10.38;7.85;;;7.30;70.10;;;;;;5030609;28;20109;-67
2021/12/13 00:35:48;;;;;;;9.70;7.07;;;7.40;70.00;;;;;;5030914;28;20030;-70
2021/12/13 00:38:16;;;;;;;9.55;7.30;;;7.40;69.70;;;;;;5032057;28;20029;-76
2021/12/13 00:40:51;;;;;;;12.88;7.57;;;7.50;69.60;;;;;;5031539;28;20037;-76
2021/12/13 00:43:35;;;;;;;10.68;7.10;;;7.50;69.40;;;;;;5014276;28;20030;-68
2021/12/13 00:46:05;;;;;;;9.93;6.80;;;7.40;69.60;;;;;;5014494;28;20051;-68
2021/12/13 00:48:35;;;;;;;10.10;7.30;;;7.50;69.50;;;;;;5031434;28;20025;-68
2021/12/13 00:51:25;;;;;;;9.93;7.20;;;7.50;69.20;;;;;;5032470;28;20028;-68
2021/12/13 00:53:53;;;;;;;9.68;7.18;;;7.60;69.20;;;;;;5031572;28;20034;-65
2021/12/13 00:56:56;;;;;;;8.63;6.88;;;7.60;69.10;;;;;;5031407;28;20025;-64
2021/12/13 00:59:46;;;;;;;9.43;7.00;;;7.60;69.00;;;;;;5031318;28;20040;-67
2021/12/13 01:02:18;;;;;;;8.68;6.38;;;7.50;69.00;;;;;;5031529;28;20030;-72
2021/12/13 01:04:47;;;;;;;10.02;6.72;;;7.50;69.20;;;;;;5014013;28;20048;-69
2021/12/13 01:07:31;;;;;;;9.63;6.88;;;7.40;69.70;;;;;;5031539;28;20068;-66
2021/12/13 01:10:00;;;;;;;9.10;6.38;;;7.40;69.70;;;;;;5014290;28;20492;-71
2021/12/13 01:12:27;;;;;;;8.57;6.80;;;7.50;69.70;;;;;;5030403;28;20053;-66
2021/12/13 01:15:09;;;;;;;8.85;7.05;;;7.50;69.50;;;;;;5031485;28;20060;-67
2021/12/13 01:18:19;;;;;;;8.88;6.45;;;7.50;69.30;;;;;;5014131;28;20057;-70
2021/12/13 01:21:10;;;;;;;8.75;6.90;;;7.50;69.40;;;;;;5033161;28;20034;-69
2021/12/13 01:23:45;;;;;;;10.88;6.97;;;7.40;69.50;;;;;;5004352;28;20037;-65
2021/12/13 01:26:35;;;;;;;10.55;7.28;;;7.40;70.30;;;;;;5035199;28;20377;-68
2021/12/13 01:29:07;;;;;;;8.90;6.97;;;7.40;69.80;;;;;;5035338;28;20029;-66
2021/12/13 01:31:38;;;;;;;12.40;7.70;;;7.50;69.80;;;;;;5016424;28;20030;-65
2021/12/13 01:34:06;;;;;;;10.88;7.47;;;7.60;69.50;;;;;;5034961;28;20033;-69
2021/12/13 01:36:45;;;;;;;9.82;7.53;;;7.60;69.30;;;;;;5035112;28;20022;-70
2021/12/13 01:39:18;;;;;;;9.40;7.13;;;7.50;69.40;;;;;;5035202;28;20098;-68
2021/12/13 01:41:53;;;;;;;9.68;7.70;;;7.50;69.40;;;;;;5034856;28;20167;-66
2021/12/13 01:44:28;;;;;;;10.88;8.18;;;7.50;69.80;;;;;;5034974;28;20040;-65
2021/12/13 01:47:02;;;;;;;9.70;7.85;;;7.50;70.30;;;;;;5035096;28;20482;-71
2021/12/13 01:49:36;;;;;;;12.43;8.95;;;7.60;69.70;;;;;;5001064;28;20363;-70
2021/12/13 01:52:12;;;;;;;10.02;7.82;;;7.60;69.50;;;;;;5016757;28;20112;-74
2021/12/13 01:54:40;;;;;;;10.93;8.70;;;7.70;69.70;;;;;;5033529;28;20385;-72
2021/12/13 02:02:17;;;;;;;9.95;8.20;;;7.60;69.50;;;;;;5034290;28;20033;-67
2021/12/13 02:04:45;;;;;;;10.50;8.07;;;7.60;69.80;;;;;;5033777;28;20121;-73
2021/12/13 02:07:14;;;;;;;10.25;8.02;;;7.60;70.40;;;;;;5034387;28;20695;-71
2021/12/13 02:09:43;;;;;;;9.18;7.55;;;7.60;69.80;;;;;;5016190;28;20021;-72
2021/12/13 02:12:14;;;;;;;11.23;7.95;;;7.60;70.00;;;;;;5033978;28;20025;-70
2021/12/13 02:16:58;;;;;;;9.73;7.40;;;7.60;70.00;;;;;;5033823;28;20029;-68
2021/12/13 02:17:42;;;;;;;10.30;8.05;;;7.60;70.20;;;;;;5033304;28;20194;-66
2021/12/13 02:20:29;;;;;;;9.00;6.95;;;7.60;70.30;;;;;;5033614;28;20025;-69
2021/12/13 02:22:56;;;;;;;11.88;7.80;;;7.50;70.50;;;;;;5033460;28;20025;-68
2021/12/13 02:25:30;;;;;;;11.07;7.15;;;7.60;70.70;;;;;;5015949;28;20064;-66
2021/12/13 02:28:09;;;;;;;9.32;6.40;;;7.60;70.70;;;;;;5034362;28;20034;-70
2021/12/13 02:30:37;;;;;;;8.45;6.68;;;7.60;70.70;;;;;;5032278;28;20033;-71
2021/12/13 02:33:07;;;;;;;8.82;6.85;;;7.60;70.80;;;;;;5034068;28;20466;-68
2021/12/13 02:35:36;;;;;;;8.73;6.85;;;7.60;71.50;;;;;;5033521;28;20495;-69
2021/12/13 02:38:04;;;;;;;8.45;6.85;;;7.60;71.10;;;;;;5033701;28;20029;-64
2021/12/13 02:40:30;;;;;;;8.48;6.60;;;7.60;71.10;;;;;;5015787;28;20113;-70
2021/12/13 02:42:56;;;;;;;10.13;6.20;;;7.60;71.00;;;;;;5033170;28;20448;-71
2021/12/13 02:45:42;;;;;;;7.43;5.72;;;7.60;71.00;;;;;;5032489;28;20025;-69
2021/12/13 02:48:14;;;;;;;8.10;6.10;;;7.60;71.00;;;;;;5032654;28;20025;-71
2021/12/13 02:51:04;;;;;;;6.40;5.60;;;7.50;71.40;;;;;;5015287;28;20428;-64
2021/12/13 02:53:48;;;;;;;6.90;5.40;;;7.60;71.70;;;;;;4998793;28;20060;-67
2021/12/13 02:56:21;;;;;;;6.50;5.47;;;7.50;71.90;;;;;;5032774;28;20033;-73
2021/12/13 02:58:48;;;;;;;6.47;5.78;;;7.60;71.90;;;;;;5033133;28;20488;-68
2021/12/13 03:01:22;;;;;;;6.47;4.93;;;7.50;72.30;;;;;;5033031;28;20474;-68
2021/12/13 03:03:53;;;;;;;5.47;4.72;;;7.60;72.50;;;;;;5015576;28;20433;-70
2021/12/13 03:06:24;;;;;;;5.50;4.38;;;7.50;72.70;;;;;;5015359;28;20032;-70
2021/12/13 03:08:56;;;;;;;6.43;4.82;;;7.50;73.10;;;;;;5032911;28;20021;-74
2021/12/13 03:11:28;;;;;;;6.13;4.38;;;7.50;73.10;;;;;;5032378;28;20083;-66
2021/12/13 03:13:59;;;;;;;5.85;3.92;;;7.60;73.40;;;;;;5032354;28;20072;-71
2021/12/13 03:16:29;;;;;;;4.90;3.95;;;7.50;73.70;;;;;;5032293;28;20019;-68
2021/12/13 03:18:59;;;;;;;5.63;3.95;;;7.40;74.20;;;;;;5015607;28;20132;-71
2021/12/13 03:21:52;;;;;;;4.80;3.85;;;7.40;74.70;;;;;;5014060;28;20021;-70
2021/12/13 03:24:39;;;;;;;5.22;3.38;;;7.40;75.20;;;;;;5018171;28;20106;-66
2021/12/13 03:27:04;;;;;;;3.83;3.38;;;7.30;75.40;;;;;;5032604;28;20029;-75
2021/12/13 03:30:01;;;;;;;4.00;3.17;;;7.30;76.00;;;;;;5031984;28;20116;-68
2021/12/13 03:32:54;;;;;;;4.40;3.45;;;7.20;76.60;;;;;;5014656;28;20029;-71
2021/12/13 03:35:33;;;;;;;4.20;3.47;;;7.20;77.20;;;;;;5032583;28;20492;-71
2021/12/13 03:38:18;;;;;;;3.67;3.20;;;7.20;77.30;;;;;;5015758;28;20049;-73
2021/12/13 03:40:45;;;;;;;3.83;3.13;;;7.20;77.30;;;;;;5031800;28;20179;-69
2021/12/13 03:43:17;;;;;;;3.58;2.92;;;7.20;77.60;;;;;;5032287;28;20025;-67
2021/12/13 03:45:50;;;;;;;3.92;3.13;;;7.20;78.10;;;;;;5032053;28;20025;-70
2021/12/13 03:48:18;;;;;;;3.88;3.30;;;7.10;78.60;;;;;;5014496;28;20037;-69
2021/12/13 03:50:48;;;;;;;3.95;3.20;;;7.00;79.70;;;;;;5014207;28;20033;-70
2021/12/13 03:53:19;;;;;;;4.30;2.90;;;7.00;79.80;;;;;;5032245;28;20057;-70
2021/12/13 03:55:48;;;;;;;3.60;3.05;;;7.10;79.70;;;;;;5014292;28;20035;-71
2021/12/13 03:58:18;;;;;;;4.25;2.95;;;7.10;79.60;;;;;;5032143;28;20061;-71
2021/12/13 04:00:55;;;;;;;3.90;2.78;;;7.10;79.50;;;;;;5031248;28;20041;-75
2021/12/13 04:03:24;;;;;;;3.20;2.38;;;7.10;79.50;;;;;;5015386;28;20055;-67
2021/12/13 04:05:50;;;;;;;2.83;2.15;;;7.10;79.50;;;;;;5031979;28;20033;-70
2021/12/13 04:08:18;;;;;;;3.63;2.60;;;7.20;79.70;;;;;;5032563;28;20034;-73
2021/12/13 04:10:48;;;;;;;2.67;2.42;;;7.20;79.60;;;;;;5031655;28;20038;-70
2021/12/13 04:13:17;;;;;;;3.10;2.22;;;7.20;79.50;;;;;;5031956;28;20049;-70
2021/12/13 04:16:08;;;;;;;2.65;2.22;;;7.20;79.30;;;;;;5030864;28;20112;-64
2021/12/13 04:19:25;;;;;;;2.70;2.10;;;7.20;79.60;;;;;;5031748;28;20025;-71
2021/12/13 04:21:46;;;;;;;3.15;2.63;;;7.30;79.70;;;;;;5020562;28;20106;-68
2021/12/13 04:24:35;;;;;;;2.50;2.00;;;7.30;79.60;;;;;;5031777;28;20036;-65
2021/12/13 04:27:09;;;;;;;3.03;2.17;;;7.20;79.60;;;;;;5014157;28;20029;-61
2021/12/13 04:29:38;;;;;;;2.60;2.10;;;7.20;79.60;;;;;;5031133;28;20129;-75
2021/12/13 04:32:20;;;;;;;2.75;2.47;;;7.20;79.50;;;;;;5030827;28;20043;-69
2021/12/13 04:34:46;;;;;;;2.90;2.10;;;7.20;79.80;;;;;;5030923;28;20208;-72
2021/12/13 04:37:19;;;;;;;2.53;2.00;;;7.20;79.80;;;;;;5031933;28;20036;-62
2021/12/13 04:39:51;;;;;;;3.28;2.40;;;7.20;79.60;;;;;;5031320;28;20029;-73
2021/12/13 04:42:19;;;;;;;3.13;2.42;;;7.20;79.80;;;;;;5031503;28;20104;-75
2021/12/13 04:44:51;;;;;;;2.83;2.13;;;7.20;79.60;;;;;;5030573;28;20037;-74
2021/12/13 04:47:23;;;;;;;3.83;2.40;;;7.30;79.60;;;;;;5014096;28;20057;-68
2021/12/13 04:50:02;;;;;;;3.65;2.40;;;7.30;79.80;;;;;;5013161;28;20057;-74
2021/12/13 04:52:28;;;;;;;2.85;2.08;;;7.20;79.90;;;;;;5013125;28;20033;-71
2021/12/13 04:54:55;;;;;;;3.08;2.42;;;7.20;80.20;;;;;;5017761;28;20120;-71
2021/12/13 04:57:22;;;;;;;2.90;2.45;;;7.30;80.10;;;;;;5035516;28;20051;-71
2021/12/13 04:59:58;;;;;;;4.85;2.97;;;7.30;79.90;;;;;;5034575;28;20106;-68
2021/12/13 05:02:25;;;;;;;4.22;2.78;;;7.20;80.10;;;;;;5034530;28;20037;-66
2021/12/13 05:05:00;;;;;;;3.88;2.90;;;7.30;79.90;;;;;;5035319;28;20025;-65
2021/12/13 05:07:28;;;;;;;4.60;2.75;;;7.30;79.90;;;;;;5034261;28;20036;-67
2021/12/13 05:09:54;;;;;;;4.28;2.70;;;7.30;79.70;;;;;;5017248;28;20033;-70
2021/12/13 05:12:25;;;;;;;3.05;2.70;;;7.30;79.80;;;;;;5034387;28;20033;-72
2021/12/13 05:15:22;;;;;;;3.30;2.85;;;7.30;80.10;;;;;;5017294;28;20029;-70
2021/12/13 05:18:07;;;;;;;3.92;3.05;;;7.30;79.90;;;;;;5034923;28;20057;-69
2021/12/13 05:20:37;;;;;;;3.45;2.67;;;7.30;80.40;;;;;;5034523;28;20025;-69
2021/12/13 05:23:11;;;;;;;3.95;2.70;;;7.40;80.50;;;;;;5034667;28;20082;-68
2021/12/13 05:25:42;;;;;;;5.30;3.30;;;7.40;80.40;;;;;;5034215;28;20384;-68
2021/12/13 05:28:37;;;;;;;4.63;3.00;;;7.40;80.60;;;;;;5034414;28;20036;-70
2021/12/13 05:31:16;;;;;;;3.45;3.00;;;7.40;80.40;;;;;;5034766;28;20021;-67
2021/12/13 05:33:42;;;;;;;3.47;2.97;;;7.40;80.40;;;;;;5015928;28;20381;-74
2021/12/13 05:36:17;;;;;;;3.47;2.60;;;7.50;80.40;;;;;;5016670;28;20075;-70
2021/12/13 05:38:46;;;;;;;3.88;2.75;;;7.50;80.50;;;;;;5034052;28;20044;-72
2021/12/13 05:41:23;;;;;;;4.30;2.47;;;7.50;80.50;;;;;;5034080;28;20030;-74
2021/12/13 05:43:59;;;;;;;3.40;2.65;;;7.50;80.30;;;;;;5034133;28;20462;-67
2021/12/13 05:46:35;;;;;;;3.38;2.80;;;7.50;80.90;;;;;;5034575;28;20026;-65
2021/12/13 05:49:04;;;;;;;3.10;2.50;;;7.50;80.80;;;;;;5033984;28;20030;-68
2021/12/13 05:51:35;;;;;;;3.75;2.47;;;7.50;80.70;;;;;;5032160;28;20124;-69
2021/12/13 05:54:25;;;;;;;3.80;2.58;;;7.40;80.80;;;;;;5035317;28;20031;-73
2021/12/13 05:56:56;;;;;;;6.97;2.70;;;7.50;80.80;;;;;;5034048;28;20033;-64
2021/12/13 05:59:25;;;;;;;4.22;2.13;;;7.50;80.80;;;;;;5034886;28;20108;-75
2021/12/13 06:02:03;;;;;;;3.33;2.20;;;7.50;81.00;;;;;;5016623;28;20123;-71
2021/12/13 06:04:43;;;;;;;3.20;2.20;;;7.50;81.20;;;;;;5015523;28;20033;-71
2021/12/13 06:07:34;;;;;;;4.30;2.50;;;7.40;81.50;;;;;;5016087;28;20108;-67
2021/12/13 06:10:01;;;;;;;4.65;2.55;;;7.30;81.70;;;;;;5024505;28;20041;-61
2021/12/13 06:12:38;;;;;;;5.75;2.63;;;7.40;81.90;;;;;;5033474;28;20049;-66
2021/12/13 06:15:16;;;;;;;5.38;2.83;;;7.50;81.90;;;;;;5034233;28;20163;-64
2021/12/13 06:18:05;;;;;;;4.53;3.10;;;7.40;81.90;;;;;;5034062;28;20031;-66
2021/12/13 06:21:03;;;;;;;4.05;2.70;;;7.40;81.80;;;;;;5022471;28;20048;-72
2021/12/13 06:23:32;;;;;;;4.88;2.58;;;7.50;81.90;;;;;;4992482;28;20050;-69
2021/12/13 06:26:07;;;;;;;6.15;2.40;;;7.40;81.90;;;;;;5033953;28;20033;-70
2021/12/13 06:28:40;;;;;;;3.47;2.53;;;7.50;82.00;;;;;;5033161;28;20029;-71
2021/12/13 06:31:16;;;;;;;3.38;2.25;;;7.50;81.80;;;;;;5034266;28;20026;-74
2021/12/13 06:33:51;;;;;;;2.78;2.10;;;7.50;81.50;;;;;;5033328;28;20030;-72
2021/12/13 06:36:36;;;;;;;4.28;2.85;;;7.50;81.30;;;;;;5033757;28;20056;-70
2021/12/13 06:39:27;;;;;;;4.30;2.50;;;7.50;81.40;;;;;;5033925;28;20030;-68
2021/12/13 06:42:06;;;;;;;4.55;2.63;;;7.60;80.80;;;;;;5016052;28;20386;-73
2021/12/13 06:44:37;;;;;;;2.97;2.25;;;7.60;80.70;;;;;;5015553;28;20029;-65
2021/12/13 06:47:06;;;;;;;3.42;2.50;;;7.70;80.80;;;;;;5033118;28;20021;-65
2021/12/13 06:49:37;;;;;;;7.55;2.58;;;7.80;80.50;;;;;;5032828;28;20030;-60
2021/12/13 06:52:11;;;;;;;3.90;2.42;;;7.70;80.30;;;;;;5032846;28;20040;-64
2021/12/13 06:54:54;;;;;;;3.35;2.00;;;7.70;80.60;;;;;;5014926;28;20036;-73
2021/12/13 06:57:36;;;;;;;3.15;2.25;;;7.80;80.60;;;;;;5015790;28;20033;-64
2021/12/13 07:00:13;;;;;;;4.78;2.50;;;7.70;80.80;;;;;;5033623;28;20056;-76
2021/12/13 07:02:50;;;;;;;9.65;2.60;;;7.70;81.00;;;;;;5032520;28;20026;-76
2021/12/13 07:05:18;;;;;;;8.85;2.60;;;7.70;81.00;;;;;;5032585;28;20026;-66
2021/12/13 07:07:55;;;;;;;9.30;2.63;;;7.80;81.70;;;;;;5032287;28;20025;-70
2021/12/13 07:10:38;;;;;;;7.53;2.45;;;7.80;80.80;;;;;;5032250;28;20108;-74
2021/12/13 07:13:08;;;;;;;6.22;2.92;;;7.80;81.10;;;;;;5032108;28;20049;-70
2021/12/13 07:15:42;;;;;;;5.32;2.63;;;7.70;81.00;;;;;;5031475;28;20052;-72
2021/12/13 07:18:11;;;;;;;4.75;3.30;;;7.70;80.70;;;;;;5014709;28;20029;-69
2021/12/13 07:20:47;;;;;;;3.92;3.20;;;7.70;80.70;;;;;;5031725;28;20059;-71
2021/12/13 07:23:13;;;;;;;7.03;3.47;;;7.80;80.70;;;;;;5031607;28;20492;-64
2021/12/13 07:25:41;;;;;;;8.77;4.05;;;7.80;80.70;;;;;;5014120;28;20473;-63
2021/12/13 07:28:09;;;;;;;5.60;3.75;;;7.70;81.60;;;;;;5032770;28;20028;-69
2021/12/13 07:30:38;;;;;;;6.38;4.45;;;7.70;82.20;;;;;;5014315;28;20037;-69
2021/12/13 07:33:08;;;;;;;5.03;4.22;;;7.60;82.60;;;;;;5014926;28;20211;-70
2021/12/13 07:35:45;;;;;;;8.27;4.47;;;7.60;82.80;;;;;;5032011;28;20024;-69
2021/12/13 07:38:16;;;;;;;5.85;4.57;;;7.60;82.80;;;;;;5032708;28;20476;-70
2021/12/13 07:40:47;;;;;;;6.70;5.13;;;7.60;83.00;;;;;;5013795;28;20385;-69
2021/12/13 07:43:27;;;;;;;12.68;5.70;;;7.60;83.20;;;;;;5032159;28;20029;-74
2021/12/13 07:46:10;;;;;;;7.28;5.40;;;7.60;83.40;;;;;;5032088;28;20037;-73
2021/12/13 07:48:42;;;;;;;8.45;5.20;;;7.60;83.50;;;;;;5031725;28;20029;-72
2021/12/13 07:51:37;;;;;;;7.40;5.15;;;7.50;83.50;;;;;;5014313;28;20370;-69
2021/12/13 07:54:16;;;;;;;5.72;4.85;;;7.50;83.60;;;;;;4997358;28;20041;-71
2021/12/13 07:56:51;;;;;;;9.43;4.90;;;7.50;84.00;;;;;;5013718;28;20052;-67
2021/12/13 07:59:31;;;;;;;9.27;5.50;;;7.50;84.00;;;;;;5014239;28;20120;-71
2021/12/13 08:02:07;;;;;;;7.03;4.95;;;7.50;84.00;;;;;;5013977;28;20064;-68
2021/12/13 08:04:36;;;;;;;6.93;3.50;;;7.50;84.00;;;;;;5012919;28;20026;-70
2021/12/13 08:07:11;;;;;;;4.43;3.88;;;7.50;84.00;;;;;;5031557;28;20095;-67
2021/12/13 08:09:45;;;;;;;4.95;3.85;;;7.50;84.40;;;;;;5030926;28;20053;-64
2021/12/13 08:12:19;;;;;;;;;;;7.50;84.60;;;;;;5031974;28;20133;-64
2021/12/13 08:14:48;;;;;;;4.10;3.15;;;7.50;84.90;;;;;;5030857;28;19912;-69
2021/12/13 08:17:18;;;;;;;6.25;3.42;;;7.50;84.70;;;;;;5013725;28;20071;-70
2021/12/13 08:19:53;;;;;;;4.95;3.20;;;7.50;84.90;;;;;;5013349;28;20370;-71
2021/12/13 08:22:42;;;;;;;5.10;3.00;;;7.50;84.70;;;;;;5031655;28;20478;-65
2021/12/13 08:25:14;;;;;;;5.38;3.05;;;7.50;84.30;;;;;;5031165;28;20033;-74
2021/12/13 08:27:48;;;;;;;5.43;2.78;;;7.50;84.10;;;;;;5033612;28;20022;-65
2021/12/13 08:30:22;;;;;;;;;;;7.60;84.00;;;;;;5018216;28;20091;-65
2021/12/13 08:33:14;;;;;;;4.20;3.10;;;7.70;83.20;;;;;;5017375;28;19912;-64
2021/12/13 08:35:46;;;;;;;7.10;4.45;;;7.70;82.70;;;;;;5035166;28;20068;-70
2021/12/13 08:38:43;;;;;;;6.95;4.65;;;7.80;82.30;;;;;;5035675;28;20021;-68
2021/12/13 08:41:14;;;;;;;4.57;2.95;;;7.70;82.50;;;;;;5021121;28;20473;-62
2021/12/13 08:43:54;;;;;;;4.10;2.10;;;7.80;82.20;;;;;;5035255;28;20037;-74
2021/12/13 08:46:41;;;;;;;4.68;2.13;;;7.80;82.00;;;;;;5034681;28;20076;-66
2021/12/13 08:49:21;;;;;;;3.47;1.80;;;7.90;81.70;;;;;;5035316;28;20128;-62
2021/12/13 08:52:27;;;;;;;5.88;2.67;;;8.10;81.30;;;;;;5034346;28;20139;-62
2021/12/13 08:55:10;;;;;;;3.05;2.55;;;8.10;80.60;;;;;;5016885;28;20022;-60
2021/12/13 08:57:52;;;;;;;5.15;2.53;;;8.10;80.40;;;;;;5034688;28;20442;-71
2021/12/13 09:00:23;;;;;;;4.25;2.10;;;8.10;80.10;;;;;;5035099;28;20052;-70
2021/12/13 09:03:17;;;;;;;5.25;2.50;;;8.10;80.60;;;;;;5016484;28;20461;-68
2021/12/13 09:05:56;;;;;;;8.77;5.03;;;8.10;80.80;;;;;;5016505;28;20120;-71
2021/12/13 09:08:43;;;;;;;3.22;2.25;;;8.20;79.80;;;;;;5034098;28;20032;-74
2021/12/13 09:11:25;;;;;;;7.03;2.80;;;8.20;79.80;;;;;;5016643;28;20068;-64
2021/12/13 09:14:01;;;;;;;3.83;2.28;;;8.30;79.60;;;;;;5033568;28;20045;-68
2021/12/13 09:16:42;;;;;;;6.15;2.63;;;8.30;79.30;;;;;;5016093;28;20491;-67
2021/12/13 09:19:14;;;;;;;5.82;2.65;;;8.30;79.10;;;;;;5016549;28;20393;-68
2021/12/13 09:21:51;;;;;;;4.55;2.78;;;8.20;78.90;;;;;;5015461;28;20033;-66
2021/12/13 09:24:28;;;;;;;11.45;3.50;;;8.30;79.00;;;;;;5030871;28;20241;-65
2021/12/13 09:27:06;;;;;;;12.07;3.75;;;8.40;78.90;;;;;;5031310;28;20561;-70
2021/12/13 09:29:44;;;;;;;7.03;3.08;;;8.40;78.00;;;;;;5031355;28;20224;-66
2021/12/13 09:32:14;;;;;;;12.82;5.68;;;8.50;78.00;;;;;;5034728;28;20112;-64
2021/12/13 09:34:40;;;;;;;7.97;4.70;;;8.50;77.70;;;;;;5032169;28;20113;-75
2021/12/13 09:37:06;;;;;;;7.88;3.30;;;8.50;78.00;;;;;;5012307;28;20501;-69
2021/12/13 09:39:32;;;;;;;5.18;3.15;;;8.60;77.30;;;;;;4999397;28;20053;-66
2021/12/13 09:42:07;;;;;;;7.07;4.05;;;8.70;76.90;;;;;;5014299;28;20040;-69
2021/12/13 09:44:55;;;;;;;9.13;3.80;;;8.60;76.70;;;;;;5030943;28;20064;-71
2021/12/13 09:47:29;;;;;;;6.22;3.20;;;8.60;76.80;;;;;;5028810;28;20025;-70
2021/12/13 09:49:55;;;;;;;;;;;8.70;76.70;;;;;;5014253;28;20456;-64
2021/12/13 09:52:47;;;;;;;5.40;3.58;;;8.70;77.00;;;;;;5032523;28;19905;-68
2021/12/13 09:55:27;;;;;;;5.57;3.00;;;8.80;76.50;;;;;;5015165;28;20477;-70
2021/12/13 09:58:07;;;;;;;4.40;2.55;;;8.90;76.00;;;;;;5032382;28;20230;-65
2021/12/13 10:00:41;;;;;;;11.63;6.05;;;8.90;75.70;;;;;;5033758;28;20449;-66
2021/12/13 10:03:20;;;;;;;12.68;6.88;;;9.00;75.90;;;;;;5015415;28;20168;-64
2021/12/13 10:05:52;;;;;;;14.65;6.65;;;9.10;75.20;;;;;;5032435;28;20117;-72
2021/12/13 10:08:22;;;;;;;7.22;3.97;;;9.10;75.10;;;;;;5032435;28;20397;-68
2021/12/13 10:10:56;;;;;;;5.55;3.70;;;9.20;74.90;;;;;;5014383;28;20029;-64
2021/12/13 10:13:30;;;;;;;5.68;4.22;;;9.20;74.50;;;;;;5014395;28;20470;-63
2021/12/13 10:16:16;;;;;;;4.40;2.47;;;9.30;74.30;;;;;;5014435;28;20128;-64
2021/12/13 10:18:47;;;;;;;8.30;3.15;;;9.40;74.00;;;;;;5032627;28;20048;-65
2021/12/13 10:21:39;;;;;;;8.30;4.03;;;9.50;73.60;;;;;;5031787;28;20462;-71
2021/12/13 10:24:29;;;;;;;12.10;5.68;;;9.60;73.50;;;;;;5014562;28;20030;-62
2021/12/13 10:26:58;;;;;;;3.33;2.40;;;9.70;72.70;;;;;;5014031;28;20033;-64
2021/12/13 10:29:26;;;;;;;4.03;2.90;;;9.60;72.30;;;;;;5014784;28;20029;-63
2021/12/13 10:32:05;;;;;;;3.92;2.28;;;9.60;72.70;;;;;;5014697;28;20026;-62
2021/12/13 10:34:34;;;;;;;4.20;2.17;;;9.60;72.60;;;;;;5032502;28;20029;-71
2021/12/13 10:37:25;;;;;;;5.53;2.90;;;9.60;72.50;;;;;;5032091;28;20029;-62
2021/12/13 10:40:07;;;;;;;4.93;2.63;;;9.60;72.70;;;;;;5014038;28;20025;-62
2021/12/13 10:42:38;;;;;;;5.25;2.30;;;9.70;73.00;;;;;;5031764;28;20130;-63
2021/12/13 10:45:09;;;;;;;3.92;1.95;;;9.60;72.30;;;;;;5031871;28;20197;-63
2021/12/13 10:47:50;;;;;;;4.70;2.10;;;9.60;72.50;;;;;;5015191;28;20032;-62
2021/12/13 10:50:23;;;;;;;7.32;3.80;;;9.50;72.70;;;;;;5026414;28;20108;-64
2021/12/13 10:52:53;;;;;;;4.78;2.60;;;9.50;73.00;;;;;;5013047;28;20060;-63
2021/12/13 10:55:28;;;;;;;3.63;2.03;;;9.60;72.70;;;;;;5032161;28;20115;-64
2021/12/13 10:57:54;;;;;;;8.02;2.10;;;9.50;72.60;;;;;;5031565;28;20065;-63
2021/12/13 11:00:31;;;;;;;5.45;1.95;;;9.40;73.00;;;;;;5032565;28;20389;-63
2021/12/13 11:03:07;;;;;;;5.88;2.13;;;9.40;73.10;;;;;;5031603;28;20053;-66
2021/12/13 11:05:33;;;;;;;3.30;1.80;;;9.40;73.40;;;;;;4998575;28;20354;-64
2021/12/13 11:08:00;;;;;;;4.80;2.15;;;9.40;73.20;;;;;;5013252;28;20165;-64
2021/12/13 11:10:35;;;;;;;3.63;2.35;;;9.30;73.70;;;;;;5013101;28;20123;-66
2021/12/13 11:13:02;;;;;;;2.97;2.08;;;9.20;74.90;;;;;;5014264;28;20055;-65
2021/12/13 11:15:36;;;;;;;7.43;2.30;;;9.20;74.70;;;;;;5012246;28;20111;-64
2021/12/13 11:18:06;;;;;;;4.10;1.95;;;9.30;74.90;;;;;;5008856;28;20116;-69
2021/12/13 11:20:44;;;;;;;4.70;2.38;;;9.10;75.40;;;;;;5023068;28;20029;-67
2021/12/13 11:23:13;;;;;;;5.10;2.45;;;9.00;76.60;;;;;;5025951;28;20159;-65
2021/12/13 11:25:45;;;;;;;3.65;2.70;;;8.90;78.30;;;;;;5012778;28;20076;-65
2021/12/13 11:28:12;;;;;;;5.13;2.63;;;8.80;79.40;;;;;;5031657;28;20224;-70
2021/12/13 11:30:39;;;;;;;3.85;2.63;;;8.80;79.70;;;;;;5030319;28;20402;-66
2021/12/13 11:33:37;;;;;;;4.90;2.45;;;8.80;79.70;;;;;;5031834;28;20036;-66
2021/12/13 11:36:41;;;;;;;3.17;2.22;;;8.90;79.70;;;;;;4986450;28;20517;-64
2021/12/13 11:39:24;;;;;;;2.92;1.90;;;8.80;79.30;;;;;;5031702;28;20048;-63
2021/12/13 11:41:55;;;;;;;5.40;2.45;;;8.80;79.60;;;;;;5030152;28;20040;-63
2021/12/13 11:44:27;;;;;;;3.78;2.20;;;8.70;80.50;;;;;;5013115;28;20489;-61
2021/12/13 11:47:14;;;;;;;4.68;2.83;;;8.70;80.70;;;;;;5012619;28;20480;-63
2021/12/13 11:49:59;;;;;;;4.38;2.22;;;8.70;80.70;;;;;;5030435;28;20117;-69
2021/12/13 11:52:59;;;;;;;2.90;1.83;;;8.70;80.20;;;;;;5012955;28;20029;-70
2021/12/13 11:55:47;;;;;;;3.78;2.38;;;8.70;80.70;;;;;;5031739;28;20111;-67
2021/12/13 11:58:34;;;;;;;9.75;2.40;;;8.60;81.50;;;;;;5010197;28;20033;-69
2021/12/13 12:01:21;;;;;;;12.90;2.60;;;8.50;82.00;;;;;;5028959;28;20128;-75
2021/12/13 12:04:06;;;;;;;4.68;2.33;;;8.40;82.80;;;;;;5030360;28;20385;-65
2021/12/13 12:07:21;;;;;;;5.82;2.28;;;8.40;83.50;;;;;;5012184;28;20029;-64
2021/12/13 12:10:05;;;;;;;;;;;8.40;84.00;;;;;;5030467;28;20022;-64
2021/12/13 12:12:52;;;;;;;6.15;2.80;;;8.40;84.20;;;;;;5029323;28;19927;-64
2021/12/13 12:15:24;;;;;;;3.05;2.10;;;8.30;84.50;;;;;;5030727;28;20564;-65
2021/12/13 12:17:50;;;;;;;3.53;2.33;;;8.30;84.60;;;;;;5029797;28;20033;-67
2021/12/13 12:20:27;;;;;;;9.00;2.53;;;8.30;85.00;;;;;;5012105;28;20079;-68
2021/12/13 12:22:58;;;;;;;7.65;2.30;;;8.30;85.30;;;;;;5029635;28;20033;-64
2021/12/13 12:25:30;;;;;;;5.00;2.53;;;8.20;85.30;;;;;;5030593;28;20079;-68
2021/12/13 12:28:07;;;;;;;4.53;2.72;;;8.20;85.10;;;;;;5028866;28;20032;-69
2021/12/13 12:30:39;;;;;;;3.53;2.47;;;8.10;85.90;;;;;;5029557;28;20494;-67
2021/12/13 12:33:07;;;;;;;6.30;2.80;;;8.20;85.90;;;;;;5012786;28;20164;-68
2021/12/13 12:35:50;;;;;;;6.22;2.42;;;8.20;86.70;;;;;;5013280;28;20052;-70
2021/12/13 12:38:33;;;;;;;4.88;2.42;;;8.10;86.20;;;;;;5030453;28;20045;-70
2021/12/13 12:41:11;;;;;;;7.35;3.20;;;8.10;87.10;;;;;;5029779;28;20098;-68
2021/12/13 12:43:41;;;;;;;6.07;3.35;;;8.10;87.00;;;;;;5011856;28;20052;-64
2021/12/13 12:46:12;;;;;;;3.08;2.40;;;8.10;87.20;;;;;;5029362;28;20049;-68
2021/12/13 12:48:47;;;;;;;6.38;2.35;;;8.10;86.90;;;;;;5029004;28;20036;-67
2021/12/13 12:51:24;;;;;;;10.07;2.30;;;8.10;87.10;;;;;;5011290;28;20035;-67
2021/12/13 12:54:00;;;;;;;7.18;2.53;;;8.20;86.70;;;;;;5028822;28;20389;-74
2021/12/13 12:56:39;;;;;;;5.63;3.33;;;8.30;86.20;;;;;;5011304;28;20124;-65
2021/12/13 12:59:10;;;;;;;6.30;3.40;;;8.30;85.80;;;;;;5025514;28;20397;-65
2021/12/13 13:01:57;;;;;;;5.50;3.70;;;8.40;85.70;;;;;;5030643;28;20346;-73
2021/12/13 13:04:25;;;;;;;6.90;3.13;;;8.60;85.50;;;;;;5010433;28;20025;-68
2021/12/13 13:06:59;;;;;;;9.02;3.85;;;8.70;84.70;;;;;;5026653;28;20239;-68
2021/12/13 13:12:48;;;;;;;17.10;8.90;;;9.00;83.70;;;;;;5027217;28;20481;-68
2021/12/13 13:15:22;;;;;;;10.20;4.05;;;9.10;83.00;;;;;;5031330;28;20040;-68
2021/12/13 13:17:51;;;;;;;;;;;9.20;82.00;;;;;;5033107;28;20155;-62
2021/12/13 13:20:22;;;;;;;6.85;3.42;;;9.20;80.90;;;;;;5015814;28;20258;-74
2021/12/13 13:22:56;;;;;;;9.13;3.50;;;9.20;81.20;;;;;;5029138;28;20120;-65
2021/12/13 13:25:26;;;;;;;8.32;3.33;;;9.30;80.80;;;;;;5014185;28;20657;-68
2021/12/13 13:27:52;;;;;;;8.52;3.47;;;9.10;80.10;;;;;;5020238;28;20282;-64
2021/12/13 13:30:28;;;;;;;8.10;3.28;;;9.00;81.00;;;;;;5026435;28;20444;-64
2021/12/13 13:32:54;;;;;;;8.38;3.97;;;8.90;81.60;;;;;;5029822;28;20033;-66
2021/12/13 13:35:20;;;;;;;10.23;4.05;;;8.90;81.70;;;;;;5033413;28;20087;-76
2021/12/13 13:37:46;;;;;;;9.70;4.25;;;8.90;81.80;;;;;;5010902;28;20527;-64
2021/12/13 13:40:17;;;;;;;6.65;3.50;;;9.00;81.40;;;;;;5032881;28;20034;-65
2021/12/13 13:42:45;;;;;;;9.40;4.20;;;9.10;81.00;;;;;;5032354;28;20541;-63
2021/12/13 13:45:17;;;;;;;10.43;4.32;;;9.10;80.70;;;;;;5015236;28;20507;-61
2021/12/13 13:47:47;;;;;;;7.10;4.50;;;9.10;79.80;;;;;;5015315;28;20032;-60
2021/12/13 13:50:21;;;;;;;8.95;4.93;;;9.10;79.30;;;;;;5016219;28;20022;-65
2021/12/13 13:52:50;;;;;;;10.85;4.78;;;9.10;79.80;;;;;;5015204;28;20033;-61